sensor_id;sensor_type;location;lat;lon;timestamp;P1;durP1;ratioP1;P2;durP2;ratioP2
61085;SDS011;46967;48.876;2.136;2023-05-10T00:00:31;6.82;;;0.90;;
61085;SDS011;46967;48.876;2.136;2023-05-10T00:02:57;8.13;;;1.15;;
61085;SDS011;46967;48.876;2.136;2023-05-10T00:05:22;9.48;;;1.00;;
61085;SDS011;46967;48.876;2.136;2023-05-10T00:07:47;5.43;;;0.93;;
61085;SDS011;46967;48.876;2.136;2023-05-10T00:10:13;5.07;;;0.98;;
61085;SDS011;46967;48.876;2.136;2023-05-10T00:12:38;7.00;;;1.20;;
61085;SDS011;46967;48.876;2.136;2023-05-10T00:15:04;4.28;;;0.93;;
61085;SDS011;46967;48.876;2.136;2023-05-10T00:17:30;5.03;;;0.85;;
61085;SDS011;46967;48.876;2.136;2023-05-10T00:19:55;3.40;;;1.33;;
61085;SDS011;46967;48.876;2.136;2023-05-10T00:22:21;5.05;;;0.88;;
61085;SDS011;46967;48.876;2.136;2023-05-10T00:24:46;7.10;;;0.82;;
61085;SDS011;46967;48.876;2.136;2023-05-10T00:27:12;4.43;;;0.65;;
61085;SDS011;46967;48.876;2.136;2023-05-10T00:29:37;3.63;;;0.70;;
61085;SDS011;46967;48.876;2.136;2023-05-10T00:32:02;7.53;;;1.13;;
61085;SDS011;46967;48.876;2.136;2023-05-10T00:34:28;5.35;;;0.77;;
61085;SDS011;46967;48.876;2.136;2023-05-10T00:36:53;7.00;;;0.77;;
61085;SDS011;46967;48.876;2.136;2023-05-10T00:39:19;5.45;;;0.70;;
61085;SDS011;46967;48.876;2.136;2023-05-10T00:41:44;8.52;;;1.27;;
61085;SDS011;46967;48.876;2.136;2023-05-10T00:44:10;3.83;;;1.05;;
61085;SDS011;46967;48.876;2.136;2023-05-10T00:46:35;5.10;;;0.75;;
61085;SDS011;46967;48.876;2.136;2023-05-10T00:49:00;3.33;;;1.10;;
61085;SDS011;46967;48.876;2.136;2023-05-10T00:51:26;7.90;;;1.13;;
61085;SDS011;46967;48.876;2.136;2023-05-10T00:53:52;7.13;;;1.15;;
61085;SDS011;46967;48.876;2.136;2023-05-10T00:56:18;4.45;;;0.90;;
61085;SDS011;46967;48.876;2.136;2023-05-10T00:58:45;5.10;;;1.45;;
61085;SDS011;46967;48.876;2.136;2023-05-10T01:01:10;8.00;;;2.03;;
61085;SDS011;46967;48.876;2.136;2023-05-10T01:03:37;4.95;;;0.85;;
61085;SDS011;46967;48.876;2.136;2023-05-10T01:06:02;3.63;;;0.70;;
61085;SDS011;46967;48.876;2.136;2023-05-10T01:08:28;3.10;;;0.50;;
61085;SDS011;46967;48.876;2.136;2023-05-10T01:10:53;6.38;;;1.17;;
61085;SDS011;46967;48.876;2.136;2023-05-10T01:13:35;2.38;;;0.77;;
61085;SDS011;46967;48.876;2.136;2023-05-10T01:16:03;7.00;;;0.82;;
61085;SDS011;46967;48.876;2.136;2023-05-10T01:18:36;2.15;;;0.63;;
61085;SDS011;46967;48.876;2.136;2023-05-10T01:26:46;3.63;;;0.88;;
61085;SDS011;46967;48.876;2.136;2023-05-10T01:40:56;1.70;;;0.60;;
61085;SDS011;46967;48.876;2.136;2023-05-10T01:43:22;5.85;;;0.80;;
61085;SDS011;46967;48.876;2.136;2023-05-10T01:45:59;4.80;;;0.80;;
61085;SDS011;46967;48.876;2.136;2023-05-10T01:48:35;3.28;;;0.60;;
61085;SDS011;46967;48.876;2.136;2023-05-10T01:51:02;2.67;;;0.60;;
61085;SDS011;46967;48.876;2.136;2023-05-10T01:53:29;3.53;;;0.70;;
61085;SDS011;46967;48.876;2.136;2023-05-10T01:55:57;2.85;;;0.50;;
61085;SDS011;46967;48.876;2.136;2023-05-10T01:58:29;2.78;;;0.55;;
61085;SDS011;46967;48.876;2.136;2023-05-10T02:00:57;6.00;;;1.27;;
61085;SDS011;46967;48.876;2.136;2023-05-10T02:03:25;1.85;;;0.47;;
61085;SDS011;46967;48.876;2.136;2023-05-10T02:05:53;4.80;;;0.60;;
61085;SDS011;46967;48.876;2.136;2023-05-10T02:08:20;6.57;;;0.70;;
61085;SDS011;46967;48.876;2.136;2023-05-10T02:10:46;4.00;;;0.60;;
61085;SDS011;46967;48.876;2.136;2023-05-10T02:13:15;4.05;;;0.73;;
61085;SDS011;46967;48.876;2.136;2023-05-10T02:15:41;3.08;;;0.60;;
61085;SDS011;46967;48.876;2.136;2023-05-10T02:18:08;2.58;;;0.40;;
61085;SDS011;46967;48.876;2.136;2023-05-10T02:20:35;4.82;;;0.60;;
61085;SDS011;46967;48.876;2.136;2023-05-10T02:23:02;1.08;;;0.43;;
61085;SDS011;46967;48.876;2.136;2023-05-10T02:25:28;2.47;;;0.50;;
61085;SDS011;46967;48.876;2.136;2023-05-10T02:27:57;0.85;;;0.35;;
61085;SDS011;46967;48.876;2.136;2023-05-10T02:30:25;3.72;;;0.80;;
61085;SDS011;46967;48.876;2.136;2023-05-10T02:32:51;4.70;;;0.70;;
61085;SDS011;46967;48.876;2.136;2023-05-10T02:35:17;3.35;;;0.85;;
61085;SDS011;46967;48.876;2.136;2023-05-10T02:37:43;4.75;;;0.70;;
61085;SDS011;46967;48.876;2.136;2023-05-10T02:40:10;3.97;;;0.63;;
61085;SDS011;46967;48.876;2.136;2023-05-10T02:42:38;3.08;;;0.70;;
61085;SDS011;46967;48.876;2.136;2023-05-10T02:45:08;3.42;;;0.30;;
61085;SDS011;46967;48.876;2.136;2023-05-10T02:50:02;1.13;;;0.22;;
61085;SDS011;46967;48.876;2.136;2023-05-10T02:52:36;3.15;;;1.17;;
61085;SDS011;46967;48.876;2.136;2023-05-10T02:55:05;2.90;;;0.68;;
61085;SDS011;46967;48.876;2.136;2023-05-10T02:57:33;3.60;;;0.47;;
61085;SDS011;46967;48.876;2.136;2023-05-10T03:00:01;3.20;;;0.63;;
61085;SDS011;46967;48.876;2.136;2023-05-10T03:02:28;3.67;;;0.65;;
61085;SDS011;46967;48.876;2.136;2023-05-10T03:04:55;2.17;;;0.50;;
61085;SDS011;46967;48.876;2.136;2023-05-10T03:07:21;5.47;;;0.60;;
61085;SDS011;46967;48.876;2.136;2023-05-10T03:09:47;2.83;;;0.70;;
61085;SDS011;46967;48.876;2.136;2023-05-10T03:12:15;1.95;;;0.60;;
61085;SDS011;46967;48.876;2.136;2023-05-10T03:20:22;1.77;;;0.43;;
61085;SDS011;46967;48.876;2.136;2023-05-10T03:22:55;4.93;;;0.70;;
61085;SDS011;46967;48.876;2.136;2023-05-10T03:25:22;1.88;;;0.35;;
61085;SDS011;46967;48.876;2.136;2023-05-10T03:27:49;2.13;;;0.50;;
61085;SDS011;46967;48.876;2.136;2023-05-10T03:30:15;2.05;;;0.40;;
61085;SDS011;46967;48.876;2.136;2023-05-10T03:32:41;4.90;;;0.80;;
61085;SDS011;46967;48.876;2.136;2023-05-10T03:35:10;6.47;;;0.63;;
61085;SDS011;46967;48.876;2.136;2023-05-10T03:37:38;1.42;;;0.40;;
61085;SDS011;46967;48.876;2.136;2023-05-10T03:40:03;6.78;;;0.77;;
61085;SDS011;46967;48.876;2.136;2023-05-10T03:42:30;2.35;;;0.73;;
61085;SDS011;46967;48.876;2.136;2023-05-10T03:44:55;8.82;;;0.60;;
61085;SDS011;46967;48.876;2.136;2023-05-10T03:47:20;2.38;;;0.68;;
61085;SDS011;46967;48.876;2.136;2023-05-10T03:49:46;2.28;;;0.47;;
61085;SDS011;46967;48.876;2.136;2023-05-10T03:52:11;0.85;;;0.50;;
61085;SDS011;46967;48.876;2.136;2023-05-10T03:54:37;4.07;;;0.47;;
61085;SDS011;46967;48.876;2.136;2023-05-10T03:57:02;2.90;;;0.43;;
61085;SDS011;46967;48.876;2.136;2023-05-10T03:59:28;3.03;;;0.45;;
61085;SDS011;46967;48.876;2.136;2023-05-10T04:01:53;1.63;;;0.50;;
61085;SDS011;46967;48.876;2.136;2023-05-10T04:04:18;5.47;;;0.50;;
61085;SDS011;46967;48.876;2.136;2023-05-10T04:06:45;2.17;;;0.40;;
61085;SDS011;46967;48.876;2.136;2023-05-10T04:09:11;4.68;;;0.68;;
61085;SDS011;46967;48.876;2.136;2023-05-10T04:11:36;1.98;;;0.50;;
61085;SDS011;46967;48.876;2.136;2023-05-10T04:14:02;1.77;;;0.50;;
61085;SDS011;46967;48.876;2.136;2023-05-10T04:16:27;2.38;;;0.52;;
61085;SDS011;46967;48.876;2.136;2023-05-10T04:18:52;2.35;;;0.43;;
61085;SDS011;46967;48.876;2.136;2023-05-10T04:21:18;2.55;;;0.50;;
61085;SDS011;46967;48.876;2.136;2023-05-10T04:23:43;5.55;;;0.70;;
61085;SDS011;46967;48.876;2.136;2023-05-10T04:26:08;1.73;;;0.65;;
61085;SDS011;46967;48.876;2.136;2023-05-10T04:28:34;1.40;;;0.40;;
61085;SDS011;46967;48.876;2.136;2023-05-10T04:31:07;2.13;;;0.60;;
61085;SDS011;46967;48.876;2.136;2023-05-10T04:33:33;2.75;;;0.68;;
61085;SDS011;46967;48.876;2.136;2023-05-10T04:35:59;1.38;;;0.50;;
61085;SDS011;46967;48.876;2.136;2023-05-10T04:38:25;3.22;;;0.55;;
61085;SDS011;46967;48.876;2.136;2023-05-10T04:40:51;1.85;;;0.50;;
61085;SDS011;46967;48.876;2.136;2023-05-10T04:43:17;1.63;;;0.60;;
61085;SDS011;46967;48.876;2.136;2023-05-10T04:45:42;3.63;;;1.30;;
61085;SDS011;46967;48.876;2.136;2023-05-10T04:48:08;2.95;;;0.60;;
61085;SDS011;46967;48.876;2.136;2023-05-10T04:50:33;1.48;;;0.50;;
61085;SDS011;46967;48.876;2.136;2023-05-10T04:52:58;2.55;;;0.60;;
61085;SDS011;46967;48.876;2.136;2023-05-10T04:55:24;1.10;;;0.50;;
61085;SDS011;46967;48.876;2.136;2023-05-10T04:57:49;3.63;;;0.60;;
61085;SDS011;46967;48.876;2.136;2023-05-10T05:00:15;2.65;;;0.40;;
61085;SDS011;46967;48.876;2.136;2023-05-10T05:02:44;3.25;;;0.52;;
61085;SDS011;46967;48.876;2.136;2023-05-10T05:05:10;2.80;;;0.70;;
61085;SDS011;46967;48.876;2.136;2023-05-10T05:07:36;3.83;;;0.60;;
61085;SDS011;46967;48.876;2.136;2023-05-10T05:10:02;1.45;;;0.70;;
61085;SDS011;46967;48.876;2.136;2023-05-10T05:12:28;4.03;;;0.77;;
61085;SDS011;46967;48.876;2.136;2023-05-10T05:14:53;2.88;;;0.70;;
61085;SDS011;46967;48.876;2.136;2023-05-10T05:17:18;5.30;;;1.10;;
61085;SDS011;46967;48.876;2.136;2023-05-10T05:19:44;3.25;;;0.90;;
61085;SDS011;46967;48.876;2.136;2023-05-10T05:22:09;3.05;;;0.57;;
61085;SDS011;46967;48.876;2.136;2023-05-10T05:24:35;5.72;;;0.98;;
61085;SDS011;46967;48.876;2.136;2023-05-10T05:27:03;2.83;;;1.30;;
61085;SDS011;46967;48.876;2.136;2023-05-10T05:29:28;6.65;;;1.10;;
61085;SDS011;46967;48.876;2.136;2023-05-10T05:31:53;5.50;;;0.90;;
61085;SDS011;46967;48.876;2.136;2023-05-10T05:34:19;5.00;;;0.75;;
61085;SDS011;46967;48.876;2.136;2023-05-10T05:36:45;4.97;;;1.10;;
61085;SDS011;46967;48.876;2.136;2023-05-10T05:39:10;1.63;;;0.80;;
61085;SDS011;46967;48.876;2.136;2023-05-10T05:41:36;5.80;;;0.85;;
61085;SDS011;46967;48.876;2.136;2023-05-10T05:44:01;4.03;;;1.02;;
61085;SDS011;46967;48.876;2.136;2023-05-10T05:46:26;3.45;;;1.10;;
61085;SDS011;46967;48.876;2.136;2023-05-10T05:48:52;6.28;;;1.30;;
61085;SDS011;46967;48.876;2.136;2023-05-10T05:51:17;2.95;;;1.40;;
61085;SDS011;46967;48.876;2.136;2023-05-10T05:53:42;4.93;;;0.95;;
61085;SDS011;46967;48.876;2.136;2023-05-10T05:56:08;5.05;;;1.95;;
61085;SDS011;46967;48.876;2.136;2023-05-10T05:58:34;2.58;;;0.80;;
61085;SDS011;46967;48.876;2.136;2023-05-10T06:01:00;3.60;;;1.25;;
61085;SDS011;46967;48.876;2.136;2023-05-10T06:03:26;2.95;;;1.23;;
61085;SDS011;46967;48.876;2.136;2023-05-10T06:05:51;4.00;;;0.98;;
61085;SDS011;46967;48.876;2.136;2023-05-10T06:08:16;4.28;;;1.33;;
61085;SDS011;46967;48.876;2.136;2023-05-10T06:10:42;6.43;;;1.00;;
61085;SDS011;46967;48.876;2.136;2023-05-10T06:13:07;4.70;;;1.30;;
61085;SDS011;46967;48.876;2.136;2023-05-10T06:15:33;3.67;;;1.42;;
61085;SDS011;46967;48.876;2.136;2023-05-10T06:17:58;4.65;;;1.02;;
61085;SDS011;46967;48.876;2.136;2023-05-10T06:20:23;4.55;;;1.35;;
61085;SDS011;46967;48.876;2.136;2023-05-10T06:22:49;4.72;;;1.30;;
61085;SDS011;46967;48.876;2.136;2023-05-10T06:25:14;4.80;;;1.35;;
61085;SDS011;46967;48.876;2.136;2023-05-10T06:27:42;3.17;;;1.40;;
61085;SDS011;46967;48.876;2.136;2023-05-10T06:30:08;2.70;;;1.00;;
61085;SDS011;46967;48.876;2.136;2023-05-10T06:32:34;2.80;;;1.20;;
61085;SDS011;46967;48.876;2.136;2023-05-10T06:35:00;4.78;;;1.20;;
61085;SDS011;46967;48.876;2.136;2023-05-10T06:37:25;3.33;;;1.30;;
61085;SDS011;46967;48.876;2.136;2023-05-10T06:39:50;5.50;;;1.33;;
61085;SDS011;46967;48.876;2.136;2023-05-10T06:42:16;1.55;;;1.00;;
61085;SDS011;46967;48.876;2.136;2023-05-10T06:44:41;3.72;;;1.15;;
61085;SDS011;46967;48.876;2.136;2023-05-10T06:47:06;7.57;;;2.22;;
61085;SDS011;46967;48.876;2.136;2023-05-10T06:49:32;3.80;;;1.10;;
61085;SDS011;46967;48.876;2.136;2023-05-10T06:51:57;2.67;;;0.85;;
61085;SDS011;46967;48.876;2.136;2023-05-10T06:54:23;5.05;;;1.10;;
61085;SDS011;46967;48.876;2.136;2023-05-10T06:56:48;3.42;;;0.95;;
61085;SDS011;46967;48.876;2.136;2023-05-10T06:59:14;3.75;;;1.05;;
61085;SDS011;46967;48.876;2.136;2023-05-10T07:01:41;2.78;;;1.00;;
61085;SDS011;46967;48.876;2.136;2023-05-10T07:04:06;2.08;;;0.90;;
61085;SDS011;46967;48.876;2.136;2023-05-10T07:06:32;2.33;;;1.13;;
61085;SDS011;46967;48.876;2.136;2023-05-10T07:08:58;3.45;;;1.13;;
61085;SDS011;46967;48.876;2.136;2023-05-10T07:11:24;1.95;;;1.10;;
61085;SDS011;46967;48.876;2.136;2023-05-10T07:13:49;2.67;;;1.25;;
61085;SDS011;46967;48.876;2.136;2023-05-10T07:16:14;2.17;;;1.00;;
61085;SDS011;46967;48.876;2.136;2023-05-10T07:18:40;3.63;;;1.00;;
61085;SDS011;46967;48.876;2.136;2023-05-10T07:21:05;1.15;;;0.80;;
61085;SDS011;46967;48.876;2.136;2023-05-10T07:23:31;3.00;;;0.90;;
61085;SDS011;46967;48.876;2.136;2023-05-10T07:25:56;5.35;;;0.80;;
61085;SDS011;46967;48.876;2.136;2023-05-10T07:28:22;2.78;;;0.70;;
61085;SDS011;46967;48.876;2.136;2023-05-10T07:30:49;2.08;;;0.80;;
61085;SDS011;46967;48.876;2.136;2023-05-10T07:33:14;3.38;;;0.63;;
61085;SDS011;46967;48.876;2.136;2023-05-10T07:35:40;1.67;;;0.75;;
61085;SDS011;46967;48.876;2.136;2023-05-10T07:38:06;2.67;;;1.00;;
61085;SDS011;46967;48.876;2.136;2023-05-10T07:40:32;4.80;;;1.38;;
61085;SDS011;46967;48.876;2.136;2023-05-10T07:42:57;2.70;;;1.63;;
61085;SDS011;46967;48.876;2.136;2023-05-10T07:45:24;2.88;;;1.50;;
61085;SDS011;46967;48.876;2.136;2023-05-10T07:47:50;3.00;;;1.50;;
61085;SDS011;46967;48.876;2.136;2023-05-10T07:50:15;3.80;;;1.63;;
61085;SDS011;46967;48.876;2.136;2023-05-10T07:52:40;5.03;;;1.88;;
61085;SDS011;46967;48.876;2.136;2023-05-10T07:55:06;5.80;;;2.35;;
61085;SDS011;46967;48.876;2.136;2023-05-10T07:57:35;6.85;;;1.75;;
61085;SDS011;46967;48.876;2.136;2023-05-10T08:00:01;6.63;;;1.75;;
61085;SDS011;46967;48.876;2.136;2023-05-10T08:02:27;3.08;;;1.40;;
61085;SDS011;46967;48.876;2.136;2023-05-10T08:04:52;3.97;;;1.30;;
61085;SDS011;46967;48.876;2.136;2023-05-10T08:07:17;5.28;;;1.45;;
61085;SDS011;46967;48.876;2.136;2023-05-10T08:09:43;3.55;;;1.25;;
61085;SDS011;46967;48.876;2.136;2023-05-10T08:12:08;3.47;;;1.35;;
61085;SDS011;46967;48.876;2.136;2023-05-10T08:14:34;5.40;;;1.15;;
61085;SDS011;46967;48.876;2.136;2023-05-10T08:17:01;6.45;;;1.38;;
61085;SDS011;46967;48.876;2.136;2023-05-10T08:19:27;7.18;;;1.50;;
61085;SDS011;46967;48.876;2.136;2023-05-10T08:21:52;4.75;;;1.20;;
61085;SDS011;46967;48.876;2.136;2023-05-10T08:24:20;3.47;;;1.10;;
61085;SDS011;46967;48.876;2.136;2023-05-10T08:26:45;3.20;;;1.20;;
61085;SDS011;46967;48.876;2.136;2023-05-10T08:29:11;7.10;;;1.52;;
61085;SDS011;46967;48.876;2.136;2023-05-10T08:31:36;6.40;;;1.42;;
61085;SDS011;46967;48.876;2.136;2023-05-10T08:34:01;5.47;;;1.50;;
61085;SDS011;46967;48.876;2.136;2023-05-10T08:36:26;5.35;;;1.52;;
61085;SDS011;46967;48.876;2.136;2023-05-10T08:38:52;7.85;;;1.42;;
61085;SDS011;46967;48.876;2.136;2023-05-10T08:41:22;5.18;;;1.70;;
61085;SDS011;46967;48.876;2.136;2023-05-10T08:43:50;7.60;;;1.80;;
61085;SDS011;46967;48.876;2.136;2023-05-10T08:46:17;13.52;;;2.75;;
61085;SDS011;46967;48.876;2.136;2023-05-10T08:48:47;7.28;;;1.95;;
61085;SDS011;46967;48.876;2.136;2023-05-10T08:51:13;6.82;;;2.17;;
61085;SDS011;46967;48.876;2.136;2023-05-10T08:53:40;18.77;;;3.15;;
61085;SDS011;46967;48.876;2.136;2023-05-10T08:56:05;10.02;;;2.20;;
61085;SDS011;46967;48.876;2.136;2023-05-10T08:58:31;11.25;;;2.75;;
61085;SDS011;46967;48.876;2.136;2023-05-10T09:00:57;12.20;;;2.55;;
61085;SDS011;46967;48.876;2.136;2023-05-10T09:03:24;14.15;;;2.53;;
61085;SDS011;46967;48.876;2.136;2023-05-10T09:05:49;11.73;;;2.90;;
61085;SDS011;46967;48.876;2.136;2023-05-10T09:08:15;18.25;;;2.85;;
61085;SDS011;46967;48.876;2.136;2023-05-10T09:10:42;17.80;;;2.80;;
61085;SDS011;46967;48.876;2.136;2023-05-10T09:13:09;13.38;;;2.70;;
61085;SDS011;46967;48.876;2.136;2023-05-10T09:15:35;17.85;;;2.58;;
61085;SDS011;46967;48.876;2.136;2023-05-10T09:18:01;15.63;;;3.45;;
61085;SDS011;46967;48.876;2.136;2023-05-10T09:20:27;12.90;;;3.05;;
61085;SDS011;46967;48.876;2.136;2023-05-10T09:22:53;15.68;;;2.58;;
61085;SDS011;46967;48.876;2.136;2023-05-10T09:25:19;16.17;;;3.35;;
61085;SDS011;46967;48.876;2.136;2023-05-10T09:27:44;13.57;;;3.10;;
61085;SDS011;46967;48.876;2.136;2023-05-10T09:30:32;14.18;;;3.00;;
61085;SDS011;46967;48.876;2.136;2023-05-10T09:32:57;17.75;;;2.95;;
61085;SDS011;46967;48.876;2.136;2023-05-10T09:35:28;9.73;;;2.97;;
61085;SDS011;46967;48.876;2.136;2023-05-10T09:37:55;14.00;;;3.40;;
61085;SDS011;46967;48.876;2.136;2023-05-10T09:40:23;17.48;;;3.08;;
61085;SDS011;46967;48.876;2.136;2023-05-10T09:42:53;12.73;;;2.80;;
61085;SDS011;46967;48.876;2.136;2023-05-10T09:45:21;14.93;;;3.55;;
61085;SDS011;46967;48.876;2.136;2023-05-10T09:47:48;17.15;;;3.28;;
61085;SDS011;46967;48.876;2.136;2023-05-10T09:50:13;19.40;;;3.58;;
61085;SDS011;46967;48.876;2.136;2023-05-10T09:55:40;13.02;;;2.83;;
61085;SDS011;46967;48.876;2.136;2023-05-10T09:58:09;16.55;;;3.13;;
61085;SDS011;46967;48.876;2.136;2023-05-10T10:00:41;26.38;;;3.90;;
61085;SDS011;46967;48.876;2.136;2023-05-10T10:03:15;21.42;;;3.47;;
61085;SDS011;46967;48.876;2.136;2023-05-10T10:05:42;20.55;;;3.70;;
61085;SDS011;46967;48.876;2.136;2023-05-10T10:08:09;15.15;;;2.75;;
61085;SDS011;46967;48.876;2.136;2023-05-10T10:10:35;14.57;;;2.83;;
61085;SDS011;46967;48.876;2.136;2023-05-10T10:13:01;19.40;;;3.17;;
61085;SDS011;46967;48.876;2.136;2023-05-10T10:15:27;17.90;;;3.38;;
61085;SDS011;46967;48.876;2.136;2023-05-10T10:17:53;14.02;;;3.20;;
61085;SDS011;46967;48.876;2.136;2023-05-10T10:20:19;15.23;;;2.95;;
61085;SDS011;46967;48.876;2.136;2023-05-10T10:22:46;14.00;;;3.75;;
61085;SDS011;46967;48.876;2.136;2023-05-10T10:25:12;12.68;;;2.72;;
61085;SDS011;46967;48.876;2.136;2023-05-10T10:35:37;17.35;;;2.90;;
61085;SDS011;46967;48.876;2.136;2023-05-10T10:38:03;11.10;;;2.65;;
61085;SDS011;46967;48.876;2.136;2023-05-10T10:40:30;15.40;;;3.22;;
61085;SDS011;46967;48.876;2.136;2023-05-10T10:42:56;12.75;;;4.25;;
61085;SDS011;46967;48.876;2.136;2023-05-10T10:45:23;12.68;;;3.47;;
61085;SDS011;46967;48.876;2.136;2023-05-10T10:50:56;16.75;;;3.28;;
61085;SDS011;46967;48.876;2.136;2023-05-10T10:53:25;11.45;;;2.95;;
61085;SDS011;46967;48.876;2.136;2023-05-10T10:55:55;12.82;;;3.10;;
61085;SDS011;46967;48.876;2.136;2023-05-10T10:58:31;11.75;;;2.90;;
61085;SDS011;46967;48.876;2.136;2023-05-10T11:01:19;11.20;;;2.38;;
61085;SDS011;46967;48.876;2.136;2023-05-10T11:06:32;17.73;;;3.42;;
61085;SDS011;46967;48.876;2.136;2023-05-10T11:09:05;9.30;;;2.97;;
61085;SDS011;46967;48.876;2.136;2023-05-10T11:11:36;11.85;;;2.95;;
61085;SDS011;46967;48.876;2.136;2023-05-10T11:14:14;15.00;;;3.10;;
61085;SDS011;46967;48.876;2.136;2023-05-10T11:16:42;11.00;;;2.88;;
61085;SDS011;46967;48.876;2.136;2023-05-10T11:19:10;11.00;;;2.58;;
61085;SDS011;46967;48.876;2.136;2023-05-10T11:24:16;15.73;;;2.72;;
61085;SDS011;46967;48.876;2.136;2023-05-10T11:26:43;12.48;;;3.00;;
61085;SDS011;46967;48.876;2.136;2023-05-10T11:29:09;12.48;;;2.90;;
61085;SDS011;46967;48.876;2.136;2023-05-10T11:31:34;19.67;;;3.53;;
61085;SDS011;46967;48.876;2.136;2023-05-10T11:34:06;13.57;;;3.10;;
61085;SDS011;46967;48.876;2.136;2023-05-10T11:36:32;14.57;;;2.75;;
61085;SDS011;46967;48.876;2.136;2023-05-10T11:39:02;12.63;;;2.83;;
61085;SDS011;46967;48.876;2.136;2023-05-10T11:41:29;9.15;;;2.60;;
61085;SDS011;46967;48.876;2.136;2023-05-10T11:43:58;11.00;;;2.57;;
61085;SDS011;46967;48.876;2.136;2023-05-10T11:46:24;10.57;;;2.67;;
61085;SDS011;46967;48.876;2.136;2023-05-10T11:48:58;12.50;;;2.78;;
61085;SDS011;46967;48.876;2.136;2023-05-10T11:51:33;9.82;;;2.35;;
61085;SDS011;46967;48.876;2.136;2023-05-10T11:54:00;13.35;;;2.92;;
61085;SDS011;46967;48.876;2.136;2023-05-10T11:58:57;8.90;;;2.55;;
61085;SDS011;46967;48.876;2.136;2023-05-10T12:01:23;12.18;;;2.58;;
61085;SDS011;46967;48.876;2.136;2023-05-10T12:03:50;14.23;;;3.80;;
61085;SDS011;46967;48.876;2.136;2023-05-10T12:06:18;11.48;;;3.00;;
61085;SDS011;46967;48.876;2.136;2023-05-10T12:08:45;9.93;;;3.15;;
61085;SDS011;46967;48.876;2.136;2023-05-10T12:11:12;12.15;;;3.13;;
61085;SDS011;46967;48.876;2.136;2023-05-10T12:13:42;11.95;;;3.00;;
61085;SDS011;46967;48.876;2.136;2023-05-10T12:16:21;14.60;;;3.10;;
61085;SDS011;46967;48.876;2.136;2023-05-10T12:18:48;11.90;;;2.78;;
61085;SDS011;46967;48.876;2.136;2023-05-10T12:21:16;15.73;;;2.50;;
61085;SDS011;46967;48.876;2.136;2023-05-10T12:23:42;7.40;;;2.28;;
61085;SDS011;46967;48.876;2.136;2023-05-10T12:26:10;10.27;;;2.20;;
61085;SDS011;46967;48.876;2.136;2023-05-10T12:28:36;11.48;;;2.60;;
61085;SDS011;46967;48.876;2.136;2023-05-10T12:31:02;6.55;;;2.15;;
61085;SDS011;46967;48.876;2.136;2023-05-10T12:33:35;8.40;;;2.30;;
61085;SDS011;46967;48.876;2.136;2023-05-10T12:36:06;11.57;;;2.72;;
61085;SDS011;46967;48.876;2.136;2023-05-10T12:38:32;8.82;;;2.22;;
61085;SDS011;46967;48.876;2.136;2023-05-10T12:41:07;7.90;;;2.10;;
61085;SDS011;46967;48.876;2.136;2023-05-10T12:43:34;15.00;;;2.03;;
61085;SDS011;46967;48.876;2.136;2023-05-10T12:48:39;4.47;;;1.40;;
61085;SDS011;46967;48.876;2.136;2023-05-10T12:51:06;8.32;;;1.92;;
61085;SDS011;46967;48.876;2.136;2023-05-10T12:53:38;11.50;;;2.72;;
61085;SDS011;46967;48.876;2.136;2023-05-10T12:56:04;9.13;;;2.35;;
61085;SDS011;46967;48.876;2.136;2023-05-10T12:58:30;9.35;;;2.50;;
61085;SDS011;46967;48.876;2.136;2023-05-10T13:00:55;11.07;;;2.13;;
61085;SDS011;46967;48.876;2.136;2023-05-10T13:03:21;8.70;;;1.88;;
61085;SDS011;46967;48.876;2.136;2023-05-10T13:05:47;5.43;;;1.70;;
61085;SDS011;46967;48.876;2.136;2023-05-10T13:08:12;10.52;;;2.25;;
61085;SDS011;46967;48.876;2.136;2023-05-10T13:10:38;10.38;;;2.63;;
61085;SDS011;46967;48.876;2.136;2023-05-10T13:13:03;10.05;;;2.20;;
61085;SDS011;46967;48.876;2.136;2023-05-10T13:15:29;8.07;;;2.15;;
61085;SDS011;46967;48.876;2.136;2023-05-10T13:17:54;7.25;;;2.33;;
61085;SDS011;46967;48.876;2.136;2023-05-10T13:20:19;13.27;;;2.58;;
61085;SDS011;46967;48.876;2.136;2023-05-10T13:22:45;6.85;;;2.15;;
61085;SDS011;46967;48.876;2.136;2023-05-10T13:25:11;10.00;;;2.10;;
61085;SDS011;46967;48.876;2.136;2023-05-10T13:27:37;8.98;;;1.90;;
61085;SDS011;46967;48.876;2.136;2023-05-10T13:30:09;9.23;;;1.75;;
61085;SDS011;46967;48.876;2.136;2023-05-10T13:32:34;9.97;;;2.10;;
61085;SDS011;46967;48.876;2.136;2023-05-10T13:35:00;12.27;;;2.30;;
61085;SDS011;46967;48.876;2.136;2023-05-10T13:37:28;11.82;;;2.05;;
61085;SDS011;46967;48.876;2.136;2023-05-10T13:39:54;8.10;;;1.70;;
61085;SDS011;46967;48.876;2.136;2023-05-10T13:42:19;9.48;;;2.15;;
61085;SDS011;46967;48.876;2.136;2023-05-10T13:44:45;10.85;;;2.15;;
61085;SDS011;46967;48.876;2.136;2023-05-10T13:47:10;7.32;;;2.08;;
61085;SDS011;46967;48.876;2.136;2023-05-10T13:49:36;6.40;;;1.60;;
61085;SDS011;46967;48.876;2.136;2023-05-10T13:52:01;7.50;;;1.17;;
61085;SDS011;46967;48.876;2.136;2023-05-10T13:54:32;5.93;;;1.67;;
61085;SDS011;46967;48.876;2.136;2023-05-10T13:56:58;8.35;;;1.67;;
61085;SDS011;46967;48.876;2.136;2023-05-10T13:59:24;7.05;;;1.48;;
61085;SDS011;46967;48.876;2.136;2023-05-10T14:01:49;7.13;;;1.60;;
61085;SDS011;46967;48.876;2.136;2023-05-10T14:04:14;8.23;;;1.67;;
61085;SDS011;46967;48.876;2.136;2023-05-10T14:06:40;7.07;;;2.13;;
61085;SDS011;46967;48.876;2.136;2023-05-10T14:09:05;5.47;;;1.67;;
61085;SDS011;46967;48.876;2.136;2023-05-10T14:11:30;6.40;;;1.50;;
61085;SDS011;46967;48.876;2.136;2023-05-10T14:13:56;7.88;;;1.77;;
61085;SDS011;46967;48.876;2.136;2023-05-10T14:16:22;12.68;;;1.75;;
61085;SDS011;46967;48.876;2.136;2023-05-10T14:18:47;4.15;;;1.58;;
61085;SDS011;46967;48.876;2.136;2023-05-10T14:21:13;7.85;;;1.40;;
61085;SDS011;46967;48.876;2.136;2023-05-10T14:23:38;10.77;;;1.42;;
61085;SDS011;46967;48.876;2.136;2023-05-10T14:26:03;7.22;;;1.50;;
61085;SDS011;46967;48.876;2.136;2023-05-10T14:28:29;8.23;;;1.83;;
61085;SDS011;46967;48.876;2.136;2023-05-10T14:30:54;8.30;;;1.83;;
61085;SDS011;46967;48.876;2.136;2023-05-10T14:33:20;8.88;;;1.85;;
61085;SDS011;46967;48.876;2.136;2023-05-10T14:35:46;7.50;;;2.25;;
61085;SDS011;46967;48.876;2.136;2023-05-10T14:38:11;11.18;;;2.30;;
61085;SDS011;46967;48.876;2.136;2023-05-10T14:40:37;8.95;;;2.33;;
61085;SDS011;46967;48.876;2.136;2023-05-10T14:43:02;7.43;;;2.05;;
61085;SDS011;46967;48.876;2.136;2023-05-10T14:45:28;8.93;;;2.00;;
61085;SDS011;46967;48.876;2.136;2023-05-10T14:47:53;7.00;;;1.70;;
61085;SDS011;46967;48.876;2.136;2023-05-10T14:50:19;9.70;;;2.15;;
61085;SDS011;46967;48.876;2.136;2023-05-10T14:52:44;10.32;;;1.70;;
61085;SDS011;46967;48.876;2.136;2023-05-10T14:55:10;9.85;;;1.77;;
61085;SDS011;46967;48.876;2.136;2023-05-10T14:57:35;7.88;;;1.50;;
61085;SDS011;46967;48.876;2.136;2023-05-10T15:00:01;5.05;;;1.60;;
61085;SDS011;46967;48.876;2.136;2023-05-10T15:02:26;4.03;;;1.40;;
61085;SDS011;46967;48.876;2.136;2023-05-10T15:04:52;6.47;;;1.75;;
61085;SDS011;46967;48.876;2.136;2023-05-10T15:07:17;12.40;;;2.20;;
61085;SDS011;46967;48.876;2.136;2023-05-10T15:09:43;8.48;;;2.25;;
61085;SDS011;46967;48.876;2.136;2023-05-10T15:12:11;9.38;;;1.70;;
61085;SDS011;46967;48.876;2.136;2023-05-10T15:14:37;8.85;;;1.88;;
61085;SDS011;46967;48.876;2.136;2023-05-10T15:17:02;5.13;;;1.33;;
61085;SDS011;46967;48.876;2.136;2023-05-10T15:19:28;12.00;;;2.00;;
61085;SDS011;46967;48.876;2.136;2023-05-10T15:21:54;5.80;;;1.40;;
61085;SDS011;46967;48.876;2.136;2023-05-10T15:24:20;10.73;;;1.88;;
61085;SDS011;46967;48.876;2.136;2023-05-10T15:26:45;11.30;;;2.08;;
61085;SDS011;46967;48.876;2.136;2023-05-10T15:29:11;5.80;;;1.80;;